Time;durP1;ratioP1;P1;durP2;ratioP2;P2;SDS_P1;SDS_P2;PMS_P1;PMS_P2;Temp;Humidity;BMP_temperature;BMP_pressure;BME280_temperature;BME280_humidity;BME280_pressure;Samples;Min_cycle;Max_cycle;Signal;HPM_P1;HPM_P2
2023/01/14 00:00:25;;;;;;;3.92;1.80;;;22.10;36.40;;;;;;5034270;28;20041;-50
2023/01/14 00:02:51;;;;;;;2.95;1.20;;;22.10;36.40;;;;;;5034598;28;20044;-54
2023/01/14 00:05:17;;;;;;;4.90;1.35;;;22.10;36.50;;;;;;5034394;28;20091;-52
2023/01/14 00:07:43;;;;;;;3.03;1.10;;;22.10;36.50;;;;;;5035360;28;20466;-51
2023/01/14 00:10:09;;;;;;;3.88;1.50;;;22.10;36.50;;;;;;5034539;28;20341;-54
2023/01/14 00:12:35;;;;;;;6.03;1.15;;;22.00;36.50;;;;;;5034643;28;20037;-51
2023/01/14 00:15:01;;;;;;;3.20;1.30;;;22.10;36.60;;;;;;5034030;28;20025;-49
2023/01/14 00:17:27;;;;;;;3.05;1.10;;;22.00;36.60;;;;;;5033798;28;20547;-50
2023/01/14 00:19:53;;;;;;;3.85;1.20;;;22.00;36.60;;;;;;5030590;28;20039;-50
2023/01/14 00:22:18;;;;;;;3.78;1.35;;;22.00;36.60;;;;;;5034378;28;20357;-49
2023/01/14 00:24:46;;;;;;;3.17;1.30;;;22.00;36.60;;;;;;5032445;28;20432;-50
2023/01/14 00:27:12;;;;;;;3.95;1.35;;;22.00;36.70;;;;;;5034211;28;20025;-52
2023/01/14 00:29:38;;;;;;;3.22;1.00;;;22.00;36.70;;;;;;5016453;28;20342;-52
2023/01/14 00:32:05;;;;;;;3.97;1.40;;;21.90;36.60;;;;;;5034271;28;20036;-51
2023/01/14 00:34:33;;;;;;;4.53;1.20;;;21.90;36.70;;;;;;5033440;28;20033;-51
2023/01/14 00:36:59;;;;;;;4.85;1.67;;;21.90;36.70;;;;;;5034662;28;20022;-53
2023/01/14 00:39:25;;;;;;;3.95;1.27;;;21.90;36.70;;;;;;5033267;28;20021;-51
2023/01/14 00:41:51;;;;;;;4.00;1.27;;;21.90;36.70;;;;;;5034205;28;20025;-50
2023/01/14 00:44:19;;;;;;;3.95;1.30;;;21.90;36.70;;;;;;5034332;28;20099;-53
2023/01/14 00:46:47;;;;;;;2.97;1.17;;;21.90;36.70;;;;;;5012776;28;20099;-52
2023/01/14 00:49:22;;;;;;;5.30;1.70;;;21.90;36.80;;;;;;5017033;28;20353;-50
2023/01/14 00:51:48;;;;;;;3.15;1.10;;;21.90;36.80;;;;;;5016202;28;20516;-52
2023/01/14 00:54:14;;;;;;;4.80;1.25;;;21.90;36.80;;;;;;5014658;28;20029;-54
2023/01/14 00:56:40;;;;;;;4.00;1.60;;;21.80;36.70;;;;;;5015362;28;20025;-48
2023/01/14 00:59:22;;;;;;;3.63;1.40;;;21.80;36.70;;;;;;5033075;28;20501;-50
2023/01/14 01:01:48;;;;;;;5.40;1.33;;;21.80;36.80;;;;;;5033557;28;20156;-50
2023/01/14 01:04:14;;;;;;;6.18;1.60;;;21.80;36.80;;;;;;5033705;28;20345;-52
2023/01/14 01:06:40;;;;;;;3.38;1.55;;;21.80;36.80;;;;;;5016569;28;20441;-47
2023/01/14 01:09:05;;;;;;;4.00;1.15;;;21.80;36.90;;;;;;5031041;28;20045;-47
2023/01/14 01:11:31;;;;;;;4.88;1.45;;;21.80;36.90;;;;;;5033597;28;20050;-49
2023/01/14 01:13:58;;;;;;;4.40;1.30;;;21.80;36.90;;;;;;5033278;28;20079;-53
2023/01/14 01:16:24;;;;;;;4.10;1.17;;;21.80;37.00;;;;;;5016185;28;20041;-53
2023/01/14 01:18:52;;;;;;;3.65;1.20;;;21.80;37.00;;;;;;5031232;28;20044;-53
2023/01/14 01:21:19;;;;;;;3.95;1.45;;;21.80;37.00;;;;;;5032747;28;20116;-52
2023/01/14 01:23:46;;;;;;;5.35;1.55;;;21.70;37.00;;;;;;5015397;28;20029;-50
2023/01/14 01:26:15;;;;;;;4.47;1.65;;;21.70;37.00;;;;;;5014634;28;20080;-51
2023/01/14 01:28:42;;;;;;;3.90;1.40;;;21.70;37.00;;;;;;5031557;28;20102;-49
2023/01/14 01:31:12;;;;;;;5.82;1.80;;;21.70;37.00;;;;;;5015014;28;20025;-52
2023/01/14 01:33:38;;;;;;;4.63;1.60;;;21.70;37.10;;;;;;5015758;28;20021;-52
2023/01/14 01:36:08;;;;;;;3.08;1.50;;;21.70;37.10;;;;;;5033227;28;20025;-53
2023/01/14 01:38:34;;;;;;;3.72;1.23;;;21.70;37.10;;;;;;5015710;28;20404;-49
2023/01/14 01:41:00;;;;;;;3.95;1.55;;;21.70;37.10;;;;;;5031992;28;20160;-51
2023/01/14 01:43:29;;;;;;;4.22;1.40;;;21.70;37.10;;;;;;5031205;28;20120;-47
2023/01/14 01:45:59;;;;;;;4.63;1.30;;;21.60;37.00;;;;;;5014624;28;20080;-50
2023/01/14 01:48:42;;;;;;;4.03;1.40;;;21.60;37.10;;;;;;5031924;28;20029;-51
2023/01/14 01:51:14;;;;;;;3.90;1.67;;;21.60;37.00;;;;;;5021285;28;20364;-48
2023/01/14 01:53:44;;;;;;;3.88;1.17;;;21.60;37.00;;;;;;5032520;28;20052;-53
2023/01/14 01:56:15;;;;;;;3.67;1.23;;;21.60;37.00;;;;;;5031212;28;20340;-54
2023/01/14 01:58:42;;;;;;;4.53;1.27;;;21.60;37.00;;;;;;5015447;28;20025;-53
2023/01/14 02:01:08;;;;;;;5.78;1.80;;;21.60;37.00;;;;;;5014104;28;20433;-52
2023/01/14 02:03:52;;;;;;;6.18;1.50;;;21.60;36.90;;;;;;5032706;28;20120;-53
2023/01/14 02:06:18;;;;;;;5.07;1.58;;;21.50;36.80;;;;;;5031468;28;20034;-52
2023/01/14 02:08:52;;;;;;;4.70;1.50;;;21.60;36.90;;;;;;5016566;28;20041;-52
2023/01/14 02:11:35;;;;;;;2.75;1.13;;;21.50;36.80;;;;;;5013765;28;20022;-53
2023/01/14 02:14:25;;;;;;;4.53;1.23;;;21.50;36.90;;;;;;5011561;28;20048;-52
2023/01/14 02:17:25;;;;;;;6.50;1.35;;;21.50;36.80;;;;;;5026857;28;20046;-51
2023/01/14 02:20:18;;;;;;;5.07;1.42;;;21.50;36.80;;;;;;5022528;28;20038;-50
2023/01/14 02:22:55;;;;;;;4.65;1.50;;;21.50;36.80;;;;;;5028958;28;20461;-52
2023/01/14 02:25:41;;;;;;;4.15;1.42;;;21.50;36.80;;;;;;5015197;28;20033;-49
2023/01/14 02:28:44;;;;;;;4.32;1.73;;;21.50;36.80;;;;;;5013226;28;20029;-54
2023/01/14 02:31:28;;;;;;;4.10;1.60;;;21.50;36.80;;;;;;5013476;28;20036;-53
2023/01/14 02:34:21;;;;;;;4.18;1.60;;;21.50;36.80;;;;;;5015048;28;20372;-49
2023/01/14 02:37:14;;;;;;;4.00;1.40;;;21.50;36.80;;;;;;5012430;28;20087;-51
2023/01/14 02:39:59;;;;;;;4.28;1.33;;;21.40;36.70;;;;;;5023836;28;20133;-52
2023/01/14 02:45:31;;;;;;;5.80;1.70;;;21.40;36.70;;;;;;5019321;28;20051;-51
2023/01/14 02:47:59;;;;;;;5.75;1.70;;;21.40;36.70;;;;;;5016352;28;20025;-49
2023/01/14 02:50:31;;;;;;;3.78;1.60;;;21.40;36.70;;;;;;5026652;28;20091;-52
2023/01/14 02:52:57;;;;;;;4.50;1.67;;;21.40;36.70;;;;;;5016379;28;20021;-49
2023/01/14 02:55:27;;;;;;;4.07;1.63;;;21.40;36.60;;;;;;5010382;28;20420;-55
2023/01/14 02:58:32;;;;;;;5.18;1.80;;;21.40;36.60;;;;;;5027909;28;20033;-54
2023/01/14 03:01:26;;;;;;;3.75;1.33;;;21.40;36.60;;;;;;5032071;28;20037;-49
2023/01/14 03:04:13;;;;;;;5.70;1.85;;;21.40;36.60;;;;;;5010260;28;20045;-52
2023/01/14 03:07:11;;;;;;;5.97;2.10;;;21.30;36.50;;;;;;5014871;28;20045;-53
2023/01/14 03:09:48;;;;;;;5.38;1.95;;;21.30;36.50;;;;;;5014628;28;20036;-54
2023/01/14 03:12:43;;;;;;;5.30;1.80;;;21.30;36.50;;;;;;5029734;28;20034;-46
2023/01/14 03:15:21;;;;;;;4.78;1.67;;;21.30;36.50;;;;;;5025451;28;20022;-49
2023/01/14 03:18:17;;;;;;;6.28;1.90;;;21.30;36.60;;;;;;5031087;28;20069;-52
2023/01/14 03:20:53;;;;;;;8.00;2.08;;;21.30;36.50;;;;;;5007592;28;20465;-52
2023/01/14 03:23:23;;;;;;;5.07;1.95;;;21.30;36.60;;;;;;5032592;28;20388;-55
2023/01/14 03:25:52;;;;;;;5.80;1.88;;;21.30;36.60;;;;;;5011994;28;20037;-51
2023/01/14 03:28:30;;;;;;;5.55;1.90;;;21.30;36.60;;;;;;5012200;28;20376;-53
2023/01/14 03:31:00;;;;;;;5.30;1.80;;;21.30;36.60;;;;;;5011641;28;20030;-49
2023/01/14 03:33:36;;;;;;;6.97;2.97;;;21.30;36.60;;;;;;5014895;28;20349;-51
2023/01/14 03:36:05;;;;;;;6.28;2.30;;;21.20;36.60;;;;;;5012970;28;20037;-54
2023/01/14 03:38:40;;;;;;;7.18;2.42;;;21.20;36.50;;;;;;5029803;28;20156;-53
2023/01/14 03:41:10;;;;;;;6.38;2.00;;;21.20;36.60;;;;;;5028137;28;20025;-52
2023/01/14 03:43:51;;;;;;;6.20;2.00;;;21.20;36.50;;;;;;5032016;28;20053;-50
2023/01/14 03:46:18;;;;;;;6.05;1.92;;;21.20;36.60;;;;;;5019566;28;20052;-54
2023/01/14 03:48:44;;;;;;;6.38;2.00;;;21.20;36.50;;;;;;5030173;28;20036;-50
2023/01/14 03:51:41;;;;;;;6.63;2.05;;;21.20;36.50;;;;;;5031137;28;20037;-53
2023/01/14 03:54:18;;;;;;;6.07;2.08;;;21.20;36.60;;;;;;5026599;28;20029;-50
2023/01/14 03:57:03;;;;;;;6.47;1.95;;;21.20;36.60;;;;;;5025109;28;20037;-53
2023/01/14 03:59:38;;;;;;;6.45;2.08;;;21.20;36.60;;;;;;5031761;28;20044;-50
2023/01/14 04:02:06;;;;;;;5.75;2.33;;;21.20;36.60;;;;;;5025328;28;20050;-49
2023/01/14 04:04:34;;;;;;;8.10;2.35;;;21.10;36.60;;;;;;5031425;28;20036;-54
2023/01/14 04:06:59;;;;;;;4.18;1.90;;;21.20;36.70;;;;;;5030560;28;20064;-53
2023/01/14 04:09:25;;;;;;;5.97;2.13;;;21.20;36.70;;;;;;5031722;28;20033;-51
2023/01/14 04:11:51;;;;;;;6.65;2.00;;;21.10;36.60;;;;;;5029653;28;20075;-50
2023/01/14 04:17:02;;;;;;;6.07;2.20;;;21.10;36.60;;;;;;5030162;28;20397;-52
2023/01/14 04:19:27;;;;;;;5.00;2.00;;;21.10;36.70;;;;;;5030020;28;20034;-50
2023/01/14 04:21:53;;;;;;;7.63;2.63;;;21.10;36.70;;;;;;5028996;28;20036;-49
2023/01/14 04:24:19;;;;;;;5.50;1.98;;;21.10;36.70;;;;;;5032644;28;20104;-51
2023/01/14 04:26:45;;;;;;;7.35;2.28;;;21.10;36.70;;;;;;5029359;28;20045;-51
2023/01/14 04:29:11;;;;;;;8.57;2.13;;;21.10;36.70;;;;;;5012210;28;20025;-53
2023/01/14 04:31:37;;;;;;;6.18;2.33;;;21.10;36.70;;;;;;5012646;28;20536;-49
2023/01/14 04:34:02;;;;;;;6.50;1.90;;;21.10;36.80;;;;;;5032716;28;20111;-50
2023/01/14 04:36:28;;;;;;;9.15;2.20;;;21.10;36.80;;;;;;5031801;28;20027;-54
2023/01/14 04:38:54;;;;;;;6.80;2.53;;;21.10;36.80;;;;;;5026890;28;20033;-53
2023/01/14 04:44:04;;;;;;;5.53;2.15;;;21.00;36.80;;;;;;5028936;28;20026;-51
2023/01/14 04:46:30;;;;;;;7.60;1.80;;;21.00;36.80;;;;;;5029012;28;20052;-52
2023/01/14 04:48:56;;;;;;;6.70;2.00;;;21.00;36.80;;;;;;5028838;28;20033;-49
2023/01/14 04:51:23;;;;;;;5.70;2.10;;;21.00;36.80;;;;;;5030490;28;20088;-52
2023/01/14 04:53:48;;;;;;;5.45;1.90;;;21.00;36.90;;;;;;5027160;28;20032;-53
2023/01/14 04:56:14;;;;;;;7.53;2.20;;;21.00;36.90;;;;;;5029078;28;20104;-54
2023/01/14 04:58:40;;;;;;;6.45;2.17;;;21.00;36.90;;;;;;5027987;28;20029;-52
2023/01/14 05:01:06;;;;;;;6.13;1.95;;;21.00;37.00;;;;;;5028890;28;20368;-51
2023/01/14 05:03:32;;;;;;;6.63;1.92;;;21.00;36.90;;;;;;5030707;28;20022;-49
2023/01/14 05:05:57;;;;;;;7.80;2.22;;;21.00;36.90;;;;;;5028465;28;20115;-54
2023/01/14 05:08:23;;;;;;;4.47;1.60;;;21.00;37.00;;;;;;5011951;28;20025;-52
2023/01/14 05:10:49;;;;;;;5.95;1.98;;;21.00;37.00;;;;;;5012568;28;20037;-53
2023/01/14 05:13:16;;;;;;;7.88;2.00;;;21.00;37.00;;;;;;5027722;28;20095;-53
2023/01/14 05:15:44;;;;;;;6.50;2.25;;;21.00;37.00;;;;;;5028747;28;20060;-54
2023/01/14 05:18:12;;;;;;;6.22;2.30;;;21.00;37.00;;;;;;5022671;28;20053;-55
2023/01/14 05:20:39;;;;;;;5.65;2.22;;;20.90;37.00;;;;;;5024759;28;20053;-50
2023/01/14 05:23:16;;;;;;;5.53;2.05;;;20.90;37.00;;;;;;5031049;28;20064;-53
2023/01/14 05:25:43;;;;;;;9.00;2.80;;;20.90;37.00;;;;;;5026984;28;20052;-52
2023/01/14 05:28:11;;;;;;;5.70;2.15;;;20.90;37.10;;;;;;5028384;28;20021;-52
2023/01/14 05:30:38;;;;;;;5.53;2.00;;;20.90;37.10;;;;;;5031586;28;20113;-52
2023/01/14 05:33:03;;;;;;;6.03;1.70;;;20.90;37.10;;;;;;5027125;28;20360;-49
2023/01/14 05:35:30;;;;;;;7.50;2.05;;;20.90;37.10;;;;;;5028788;28;20040;-49
2023/01/14 05:37:56;;;;;;;4.35;2.05;;;20.90;37.10;;;;;;5027873;28;20032;-52
2023/01/14 05:40:22;;;;;;;5.15;1.92;;;20.90;37.10;;;;;;5010200;28;20112;-52
2023/01/14 05:45:41;;;;;;;4.50;1.65;;;20.90;37.20;;;;;;5024462;28;20037;-52
2023/01/14 05:48:09;;;;;;;6.97;2.05;;;20.90;37.20;;;;;;5023452;28;20033;-53
2023/01/14 05:50:35;;;;;;;5.85;1.98;;;20.80;37.10;;;;;;5027153;28;20069;-50
2023/01/14 05:53:01;;;;;;;6.63;2.25;;;20.80;37.10;;;;;;5029799;28;20021;-55
2023/01/14 05:55:27;;;;;;;5.57;1.90;;;20.80;37.10;;;;;;5028497;28;20489;-51
2023/01/14 05:57:55;;;;;;;4.95;1.75;;;20.80;37.20;;;;;;5028448;28;20030;-51
2023/01/14 06:08:35;;;;;;;5.47;2.00;;;20.80;37.20;;;;;;5028188;28;20034;-51
2023/01/14 06:11:01;;;;;;;8.20;2.22;;;20.80;37.20;;;;;;5009858;28;20021;-53
2023/01/14 06:13:27;;;;;;;4.72;1.67;;;20.80;37.20;;;;;;5030192;28;20456;-54
2023/01/14 06:15:55;;;;;;;5.38;1.90;;;20.80;37.20;;;;;;5025041;28;20352;-49
2023/01/14 06:18:22;;;;;;;5.32;1.60;;;20.80;37.20;;;;;;5028243;28;20053;-53
2023/01/14 06:20:52;;;;;;;5.40;1.77;;;20.80;37.20;;;;;;5032250;28;20052;-51
2023/01/14 06:23:19;;;;;;;6.20;1.67;;;20.80;37.20;;;;;;5031902;28;20479;-50
2023/01/14 06:25:46;;;;;;;5.15;1.83;;;20.70;37.20;;;;;;5017020;28;20111;-50
2023/01/14 06:28:13;;;;;;;4.32;1.90;;;20.80;37.20;;;;;;5027834;28;20029;-51
2023/01/14 06:30:40;;;;;;;5.40;1.90;;;20.70;37.20;;;;;;5032027;28;20025;-53
2023/01/14 06:33:06;;;;;;;7.35;2.20;;;20.70;37.20;;;;;;5031873;28;20468;-54
2023/01/14 06:35:33;;;;;;;6.15;1.40;;;20.70;37.20;;;;;;5035915;28;20025;-54
2023/01/14 06:37:59;;;;;;;5.47;1.70;;;20.70;37.20;;;;;;5029992;28;20025;-51
2023/01/14 06:40:25;;;;;;;5.05;1.80;;;20.70;37.20;;;;;;5033430;28;20026;-52
2023/01/14 06:42:54;;;;;;;4.38;1.48;;;20.70;37.20;;;;;;5012678;28;20372;-52
2023/01/14 06:45:20;;;;;;;4.18;1.48;;;20.70;37.20;;;;;;5029253;28;20444;-52
2023/01/14 06:47:47;;;;;;;5.03;1.55;;;20.70;37.20;;;;;;5031856;28;20033;-48
2023/01/14 06:50:13;;;;;;;7.28;1.98;;;20.70;37.20;;;;;;5030422;28;20040;-52
2023/01/14 06:52:40;;;;;;;6.10;1.90;;;20.70;37.20;;;;;;5030479;28;20057;-53
2023/01/14 06:55:06;;;;;;;4.63;1.38;;;20.70;37.30;;;;;;5033470;28;20042;-52
2023/01/14 06:57:32;;;;;;;3.63;1.50;;;20.60;37.20;;;;;;5028351;28;20075;-53
2023/01/14 06:59:58;;;;;;;6.70;2.05;;;20.70;37.30;;;;;;5032298;28;20029;-55
2023/01/14 07:02:23;;;;;;;7.82;2.30;;;20.60;37.20;;;;;;5015878;28;20103;-51
2023/01/14 07:04:49;;;;;;;5.45;1.80;;;20.70;37.30;;;;;;5034427;28;20049;-51
2023/01/14 07:07:15;;;;;;;5.53;1.75;;;20.70;37.30;;;;;;5028899;28;20044;-51
2023/01/14 07:09:42;;;;;;;5.43;1.63;;;20.60;37.20;;;;;;5029507;28;20038;-53
2023/01/14 07:12:07;;;;;;;4.72;1.50;;;20.60;37.20;;;;;;5032456;28;20045;-53
2023/01/14 07:14:33;;;;;;;5.10;1.52;;;20.60;37.30;;;;;;5032912;28;20026;-54
2023/01/14 07:17:01;;;;;;;4.43;1.65;;;20.60;37.30;;;;;;5030190;28;20160;-55
2023/01/14 07:19:27;;;;;;;5.13;1.52;;;20.60;37.30;;;;;;5010778;28;20051;-53
2023/01/14 07:21:53;;;;;;;7.72;1.70;;;20.60;37.30;;;;;;5029616;28;20437;-50
2023/01/14 07:24:19;;;;;;;7.65;1.73;;;20.60;37.30;;;;;;5029025;28;20021;-51
2023/01/14 07:26:44;;;;;;;4.88;1.63;;;20.60;37.30;;;;;;5032734;28;20049;-54
2023/01/14 07:29:10;;;;;;;5.20;1.58;;;20.60;38.10;;;;;;5028370;28;20160;-55
2023/01/14 07:31:36;;;;;;;6.60;1.75;;;20.60;37.50;;;;;;5028987;28;20124;-55
2023/01/14 07:34:02;;;;;;;5.65;1.60;;;20.60;37.50;;;;;;5014634;28;20033;-51
2023/01/14 07:36:28;;;;;;;7.65;2.00;;;20.60;37.50;;;;;;5034914;28;20049;-53
2023/01/14 07:38:54;;;;;;;5.60;1.67;;;20.60;37.60;;;;;;5030547;28;20036;-50
2023/01/14 07:41:20;;;;;;;6.50;2.13;;;20.60;37.60;;;;;;5029188;28;20659;-50
2023/01/14 07:43:47;;;;;;;6.38;2.22;;;20.50;37.60;;;;;;5024262;28;20033;-51
2023/01/14 07:46:14;;;;;;;5.32;1.70;;;20.50;37.60;;;;;;5022626;28;20481;-52
2023/01/14 07:48:40;;;;;;;5.72;1.50;;;20.60;37.70;;;;;;5020967;28;20037;-51
2023/01/14 07:51:08;;;;;;;7.68;1.70;;;20.50;37.70;;;;;;5023636;28;21593;-53
2023/01/14 07:53:34;;;;;;;4.65;1.42;;;20.50;37.70;;;;;;5006014;28;20200;-53
2023/01/14 07:56:01;;;;;;;5.15;2.03;;;20.50;37.70;;;;;;5027562;28;20026;-53
2023/01/14 07:58:27;;;;;;;4.47;1.50;;;20.60;37.90;;;;;;5022202;28;20033;-50
2023/01/14 08:00:53;;;;;;;3.88;1.20;;;20.50;37.80;;;;;;5025968;28;20033;-52
2023/01/14 08:03:20;;;;;;;3.88;1.48;;;20.50;37.90;;;;;;5023858;28;20037;-53
2023/01/14 08:05:46;;;;;;;7.03;2.03;;;20.50;37.90;;;;;;5019350;28;20042;-52
2023/01/14 08:08:12;;;;;;;3.20;1.45;;;20.50;38.00;;;;;;5022765;28;20092;-48
2023/01/14 08:10:38;;;;;;;4.82;1.63;;;20.50;38.00;;;;;;5026995;28;20168;-53
2023/01/14 08:13:04;;;;;;;4.30;1.42;;;20.50;38.10;;;;;;5024884;28;20126;-52
2023/01/14 08:15:30;;;;;;;4.22;1.45;;;20.50;38.20;;;;;;5021529;28;20588;-50
2023/01/14 08:17:56;;;;;;;4.63;1.50;;;20.60;38.40;;;;;;5021037;28;20064;-54
2023/01/14 08:20:23;;;;;;;5.43;1.50;;;20.60;38.50;;;;;;5021575;28;20095;-52
2023/01/14 08:22:56;;;;;;;4.82;1.60;;;20.60;38.60;;;;;;5020577;28;20079;-48
2023/01/14 08:25:21;;;;;;;4.05;1.38;;;20.60;38.70;;;;;;5020922;28;20331;-48
2023/01/14 08:27:47;;;;;;;5.95;1.60;;;20.70;38.80;;;;;;5018148;28;20033;-52
2023/01/14 08:30:13;;;;;;;3.28;1.27;;;20.70;38.90;;;;;;5022016;28;20128;-53
2023/01/14 08:32:39;;;;;;;7.32;1.92;;;20.70;39.00;;;;;;5015670;28;20026;-50
2023/01/14 08:35:05;;;;;;;3.67;1.48;;;20.80;39.00;;;;;;5017346;28;20052;-50
2023/01/14 08:37:31;;;;;;;3.70;1.35;;;20.80;39.00;;;;;;5024776;28;20040;-52
2023/01/14 08:39:57;;;;;;;5.28;1.38;;;20.90;39.20;;;;;;5022855;28;20042;-51
2023/01/14 08:42:23;;;;;;;4.65;1.65;;;21.00;39.20;;;;;;5018811;28;20036;-52
2023/01/14 08:44:49;;;;;;;3.03;1.15;;;21.00;39.30;;;;;;5026368;28;20021;-50
2023/01/14 08:47:15;;;;;;;5.60;1.10;;;21.00;39.30;;;;;;5029054;28;20449;-49
2023/01/14 08:49:40;;;;;;;3.55;1.30;;;21.10;39.30;;;;;;5028900;28;20040;-51
2023/01/14 08:52:07;;;;;;;4.32;1.10;;;21.20;39.40;;;;;;5033522;28;20026;-55
2023/01/14 08:54:33;;;;;;;5.03;1.42;;;21.20;39.40;;;;;;5034060;28;20021;-52
2023/01/14 08:56:59;;;;;;;3.10;1.00;;;21.30;39.50;;;;;;5034114;28;20036;-49
2023/01/14 08:59:24;;;;;;;4.88;1.17;;;21.30;39.50;;;;;;5034112;28;20025;-50
2023/01/14 09:01:51;;;;;;;4.55;1.45;;;21.40;39.50;;;;;;5024118;28;20026;-53
2023/01/14 09:04:17;;;;;;;4.72;1.50;;;21.40;39.50;;;;;;5030365;28;20018;-52
2023/01/14 09:17:41;;;;;;;2.00;0.95;;;21.70;39.40;;;;;;5021846;28;20054;-52
2023/01/14 09:20:12;;;;;;;5.20;1.20;;;21.70;39.30;;;;;;5020964;28;20112;-52
2023/01/14 09:22:38;;;;;;;2.58;0.98;;;21.80;39.30;;;;;;5020607;28;20048;-49
2023/01/14 09:25:04;;;;;;;3.83;1.13;;;21.80;39.30;;;;;;5025418;28;20049;-54
2023/01/14 09:27:31;;;;;;;2.30;1.00;;;21.80;39.20;;;;;;5016880;28;20396;-52
2023/01/14 09:29:57;;;;;;;2.90;1.10;;;21.90;39.20;;;;;;5016929;28;20110;-49
2023/01/14 09:32:23;;;;;;;3.35;0.95;;;21.90;39.30;;;;;;5017010;28;20112;-58
2023/01/14 09:34:50;;;;;;;3.00;1.27;;;21.90;39.20;;;;;;5014967;28;20026;-55
2023/01/14 09:37:21;;;;;;;3.92;1.00;;;22.00;39.30;;;;;;5013207;28;20038;-51
2023/01/14 09:39:48;;;;;;;3.83;0.95;;;22.10;39.40;;;;;;5014992;28;20030;-53
2023/01/14 09:42:26;;;;;;;3.10;1.15;;;22.10;39.40;;;;;;5013269;28;20029;-54
2023/01/14 09:45:10;;;;;;;5.65;1.20;;;22.10;39.90;;;;;;5019458;28;20113;-52
2023/01/14 09:47:36;;;;;;;2.25;0.80;;;22.10;39.20;;;;;;5030020;28;20044;-53
2023/01/14 09:50:06;;;;;;;2.05;0.88;;;22.10;39.20;;;;;;5027249;28;20029;-52
2023/01/14 09:52:44;;;;;;;2.65;0.95;;;22.20;39.10;;;;;;5021448;28;20115;-51
2023/01/14 09:55:36;;;;;;;2.10;0.98;;;22.20;39.10;;;;;;5018734;28;20049;-53
2023/01/14 09:58:25;;;;;;;2.40;0.98;;;22.20;39.00;;;;;;5032034;28;20029;-57
2023/01/14 10:01:26;;;;;;;1.48;0.70;;;22.20;39.10;;;;;;5032442;28;20120;-51
2023/01/14 10:04:18;;;;;;;1.48;0.90;;;22.20;39.30;;;;;;4977675;28;20049;-54
2023/01/14 10:06:47;;;;;;;1.92;0.75;;;22.30;39.40;;;;;;5032331;28;20045;-53
2023/01/14 10:09:24;;;;;;;2.03;0.80;;;22.20;39.40;;;;;;5031419;28;20437;-57
2023/01/14 10:11:51;;;;;;;3.33;1.00;;;22.30;39.50;;;;;;5030580;28;20040;-56
2023/01/14 10:14:26;;;;;;;1.42;0.65;;;22.30;39.50;;;;;;5032822;28;20087;-58
2023/01/14 10:16:58;;;;;;;1.95;0.80;;;22.30;39.40;;;;;;5014815;28;20055;-58
2023/01/14 10:19:45;;;;;;;3.00;0.80;;;22.30;39.40;;;;;;5032374;28;20171;-55
2023/01/14 10:22:37;;;;;;;1.65;0.73;;;22.30;39.30;;;;;;5032574;28;20025;-57
2023/01/14 10:25:12;;;;;;;1.75;0.60;;;22.40;39.30;;;;;;5031034;28;20025;-56
2023/01/14 10:27:40;;;;;;;1.73;0.52;;;22.30;39.20;;;;;;5032462;28;20120;-58
2023/01/14 10:30:17;;;;;;;1.38;0.68;;;22.40;39.20;;;;;;5032545;28;20034;-56
2023/01/14 10:32:44;;;;;;;2.53;0.70;;;22.40;39.10;;;;;;5013457;28;20121;-52
2023/01/14 10:35:14;;;;;;;2.60;0.60;;;22.40;39.10;;;;;;5015389;28;20087;-53
2023/01/14 10:37:40;;;;;;;3.05;0.90;;;22.40;39.10;;;;;;5032532;28;20449;-60
2023/01/14 10:40:20;;;;;;;3.35;1.17;;;22.40;39.20;;;;;;5032177;28;20041;-56
2023/01/14 10:42:46;;;;;;;1.48;0.68;;;22.50;39.50;;;;;;5014645;28;20041;-58
2023/01/14 10:45:12;;;;;;;3.72;0.65;;;22.40;39.50;;;;;;5031544;28;20035;-59
2023/01/14 10:47:39;;;;;;;3.97;0.98;;;22.50;39.60;;;;;;5030702;28;20029;-58
2023/01/14 10:50:18;;;;;;;2.42;0.63;;;22.50;39.50;;;;;;5032290;28;20064;-60
2023/01/14 10:52:44;;;;;;;3.50;0.85;;;22.50;39.50;;;;;;5032683;28;20348;-53
2023/01/14 10:55:17;;;;;;;1.77;0.60;;;22.50;39.50;;;;;;5032705;28;20025;-52
2023/01/14 10:57:49;;;;;;;2.08;0.85;;;22.50;39.40;;;;;;5030503;28;20090;-56
2023/01/14 11:00:39;;;;;;;1.67;0.60;;;22.50;39.30;;;;;;5014919;28;20064;-59
2023/01/14 11:03:22;;;;;;;1.55;0.65;;;22.50;39.30;;;;;;5030237;28;20033;-55
2023/01/14 11:06:04;;;;;;;3.40;0.50;;;22.50;39.30;;;;;;5033596;28;20045;-56
2023/01/14 11:08:39;;;;;;;1.60;0.65;;;22.60;39.30;;;;;;5033893;28;20181;-55
2023/01/14 11:11:11;;;;;;;2.13;0.70;;;22.60;39.20;;;;;;5035809;28;20060;-57
2023/01/14 11:13:42;;;;;;;3.72;0.70;;;22.60;39.10;;;;;;5031436;28;20112;-54
2023/01/14 11:16:28;;;;;;;3.05;0.57;;;22.60;39.10;;;;;;5035156;28;20453;-56
2023/01/14 11:18:56;;;;;;;4.72;0.80;;;22.60;39.10;;;;;;5009557;28;20121;-54
2023/01/14 11:21:24;;;;;;;2.00;0.60;;;22.60;39.10;;;;;;5004040;28;20037;-57
2023/01/14 11:24:03;;;;;;;1.02;0.50;;;22.60;39.10;;;;;;5005516;28;20434;-51
2023/01/14 11:26:33;;;;;;;1.85;0.80;;;22.60;39.00;;;;;;5003687;28;20465;-54
2023/01/14 11:29:23;;;;;;;2.67;0.68;;;22.60;39.00;;;;;;5003695;28;20030;-55
2023/01/14 11:31:56;;;;;;;0.98;0.47;;;22.60;39.00;;;;;;5004612;28;20032;-55
2023/01/14 11:34:38;;;;;;;1.45;0.52;;;22.60;39.10;;;;;;5003595;28;20169;-50
2023/01/14 11:37:09;;;;;;;3.15;0.50;;;22.60;39.10;;;;;;5001601;28;20030;-53
2023/01/14 11:39:37;;;;;;;1.70;0.63;;;22.60;39.10;;;;;;5006829;28;20148;-57
2023/01/14 11:42:21;;;;;;;1.27;0.60;;;22.60;39.00;;;;;;5006503;28;20569;-55
2023/01/14 11:45:16;;;;;;;1.50;0.57;;;22.60;39.00;;;;;;5009690;28;20405;-50
2023/01/14 11:47:49;;;;;;;2.05;0.60;;;22.60;39.00;;;;;;5005186;28;20052;-54
2023/01/14 11:50:34;;;;;;;1.75;0.80;;;22.60;39.00;;;;;;5015934;28;20122;-56
2023/01/14 11:53:15;;;;;;;2.53;0.40;;;22.70;39.10;;;;;;5001907;28;20107;-55
2023/01/14 11:55:44;;;;;;;0.60;0.40;;;22.70;39.10;;;;;;5001688;28;20030;-52
2023/01/14 11:58:30;;;;;;;2.13;0.50;;;22.70;39.80;;;;;;5006402;28;20030;-55
2023/01/14 12:01:07;;;;;;;1.67;0.50;;;22.70;39.10;;;;;;5005481;28;20030;-55
2023/01/14 12:03:46;;;;;;;1.15;0.50;;;22.70;39.10;;;;;;5005646;28;20384;-53
2023/01/14 12:06:16;;;;;;;1.55;0.63;;;22.70;39.00;;;;;;4998533;28;20038;-55
2023/01/14 12:08:46;;;;;;;1.30;0.40;;;22.60;39.00;;;;;;4997962;28;20034;-55
2023/01/14 12:11:34;;;;;;;1.80;0.50;;;22.60;39.10;;;;;;5000796;28;20042;-51
2023/01/14 12:17:07;;;;;;;0.85;0.40;;;22.70;39.40;;;;;;4995487;28;20026;-56
2023/01/14 12:19:50;;;;;;;1.10;0.50;;;22.70;39.40;;;;;;5019424;28;20449;-56
2023/01/14 12:22:36;;;;;;;1.55;0.50;;;22.70;39.30;;;;;;5021481;28;20029;-57
2023/01/14 12:25:14;;;;;;;1.17;0.50;;;22.70;39.30;;;;;;5024074;28;20029;-56
2023/01/14 12:28:10;;;;;;;0.60;0.45;;;22.60;39.30;;;;;;5020376;28;20120;-56
2023/01/14 12:30:59;;;;;;;2.88;0.50;;;22.70;39.90;;;;;;5020125;28;20036;-57
2023/01/14 12:33:31;;;;;;;4.15;0.40;;;22.60;39.30;;;;;;5025137;28;20037;-56
2023/01/14 12:36:19;;;;;;;1.77;0.40;;;22.60;39.30;;;;;;5020260;28;20060;-54
2023/01/14 12:47:36;;;;;;;1.27;0.40;;;22.60;39.50;;;;;;5030528;28;20045;-55
2023/01/14 12:50:08;;;;;;;1.35;0.30;;;22.50;39.60;;;;;;5030857;28;20021;-54
2023/01/14 12:53:05;;;;;;;1.40;0.68;;;22.50;39.70;;;;;;5033291;28;20079;-54
2023/01/14 12:55:38;;;;;;;0.47;0.20;;;22.50;39.80;;;;;;5023239;28;20071;-56
2023/01/14 12:58:06;;;;;;;1.45;0.40;;;22.50;39.80;;;;;;5051844;28;20037;-55
2023/01/14 13:00:37;;;;;;;0.52;0.40;;;22.50;39.80;;;;;;5017519;28;20125;-53
2023/01/14 13:03:24;;;;;;;0.65;0.28;;;22.50;39.80;;;;;;5034965;28;20025;-54
2023/01/14 13:05:53;;;;;;;0.38;0.20;;;22.50;39.80;;;;;;5034836;28;20042;-57
2023/01/14 13:08:28;;;;;;;0.65;0.40;;;22.50;39.80;;;;;;5032940;28;20088;-54
2023/01/14 13:11:04;;;;;;;0.43;0.20;;;22.50;39.80;;;;;;5017485;28;20101;-56
2023/01/14 13:13:36;;;;;;;1.75;0.20;;;22.50;39.80;;;;;;5033818;28;20820;-55
2023/01/14 13:16:23;;;;;;;0.25;0.20;;;22.50;39.80;;;;;;5033081;28;20036;-56
2023/01/14 13:18:57;;;;;;;1.23;0.35;;;22.50;39.80;;;;;;5030875;28;20096;-54
2023/01/14 13:22:00;;;;;;;0.55;0.20;;;22.50;39.90;;;;;;5033283;28;20361;-53
2023/01/14 13:24:47;;;;;;;0.82;0.30;;;22.50;39.90;;;;;;5030336;28;20063;-57
2023/01/14 13:27:36;;;;;;;0.68;0.30;;;22.50;39.90;;;;;;4988797;28;20058;-57
2023/01/14 13:30:20;;;;;;;0.57;0.20;;;22.50;40.00;;;;;;5028995;28;20042;-53
2023/01/14 13:32:53;;;;;;;0.38;0.17;;;22.50;40.10;;;;;;5032227;28;20034;-55
2023/01/14 13:35:21;;;;;;;0.25;0.20;;;22.40;40.10;;;;;;5031719;28;20152;-53
2023/01/14 13:37:49;;;;;;;0.55;0.30;;;22.40;40.20;;;;;;5031779;28;20039;-56
2023/01/14 13:40:22;;;;;;;0.63;0.28;;;22.50;40.40;;;;;;5026097;28;20041;-53
2023/01/14 13:43:06;;;;;;;1.63;0.57;;;22.50;40.40;;;;;;5014845;28;20119;-56
2023/01/14 13:45:38;;;;;;;0.65;0.22;;;22.50;40.40;;;;;;5016671;28;20064;-58
2023/01/14 13:48:41;;;;;;;0.50;0.30;;;22.50;40.50;;;;;;5031651;28;20449;-53
2023/01/14 13:51:34;;;;;;;0.50;0.20;;;22.50;40.70;;;;;;4967936;28;20098;-57
2023/01/14 13:54:04;;;;;;;0.77;0.20;;;22.50;40.80;;;;;;5016948;28;20062;-54